Ford, Kansas
Current Conditions -  °F | °C
As of 12:02 AM on Friday 19 Dec 2014 (Local Time) from KDDC Reporting Station
Haze Haze  
Wind Chill: 29°   Ceiling: 400
Heat Index: 33°   Visibility: 5mi
Dew Point: 30°   Wind: 5mph
Humidity: 89%   Direction: 230°SW
Pressure: 30.19"   Gusts: NA
Location:  37.64°N, 99.75°W
Report Text: KDDC 190602Z AUTO 23004KT 5SM BR OVC004 01/M01 A3019 RMK AO2 T00061011
Loading
Personal Weather Stations






























Interactive Weather Map New forecast layout! Learn more

10-Day Weather Forecast

Advertisements
Track Severe Weather on mobile